sensor_id;sensor_type;location;lat;lon;timestamp;P1;durP1;ratioP1;P2;durP2;ratioP2
20417;SDS011;10368;51.436;6.774;2023-09-12T00:02:14;18.02;;;13.13;;
20417;SDS011;10368;51.436;6.774;2023-09-12T00:04:42;14.18;;;12.77;;
20417;SDS011;10368;51.436;6.774;2023-09-12T00:07:09;15.20;;;13.68;;
20417;SDS011;10368;51.436;6.774;2023-09-12T00:09:36;15.68;;;14.07;;
20417;SDS011;10368;51.436;6.774;2023-09-12T00:12:04;18.20;;;16.45;;
20417;SDS011;10368;51.436;6.774;2023-09-12T00:14:31;19.13;;;16.30;;
20417;SDS011;10368;51.436;6.774;2023-09-12T00:16:58;16.42;;;14.73;;
20417;SDS011;10368;51.436;6.774;2023-09-12T00:19:25;16.00;;;13.07;;
20417;SDS011;10368;51.436;6.774;2023-09-12T00:21:52;16.58;;;14.82;;
20417;SDS011;10368;51.436;6.774;2023-09-12T00:24:20;18.15;;;14.98;;
20417;SDS011;10368;51.436;6.774;2023-09-12T00:26:47;20.50;;;16.40;;
20417;SDS011;10368;51.436;6.774;2023-09-12T00:29:14;24.65;;;22.00;;
20417;SDS011;10368;51.436;6.774;2023-09-12T00:31:42;18.80;;;15.82;;
20417;SDS011;10368;51.436;6.774;2023-09-12T00:34:09;27.88;;;18.05;;
20417;SDS011;10368;51.436;6.774;2023-09-12T00:36:36;30.40;;;15.73;;
20417;SDS011;10368;51.436;6.774;2023-09-12T00:39:04;27.38;;;17.63;;
20417;SDS011;10368;51.436;6.774;2023-09-12T00:41:31;21.73;;;15.25;;
20417;SDS011;10368;51.436;6.774;2023-09-12T00:43:58;18.33;;;16.35;;
20417;SDS011;10368;51.436;6.774;2023-09-12T00:46:25;18.77;;;14.20;;
20417;SDS011;10368;51.436;6.774;2023-09-12T00:48:53;21.90;;;17.98;;
20417;SDS011;10368;51.436;6.774;2023-09-12T00:51:23;30.10;;;18.55;;
20417;SDS011;10368;51.436;6.774;2023-09-12T00:53:52;25.80;;;18.33;;
20417;SDS011;10368;51.436;6.774;2023-09-12T00:56:20;23.63;;;16.58;;
20417;SDS011;10368;51.436;6.774;2023-09-12T00:58:48;37.60;;;17.63;;
20417;SDS011;10368;51.436;6.774;2023-09-12T01:01:18;20.25;;;15.25;;
20417;SDS011;10368;51.436;6.774;2023-09-12T01:03:46;19.52;;;16.77;;
20417;SDS011;10368;51.436;6.774;2023-09-12T01:06:14;21.08;;;15.80;;
20417;SDS011;10368;51.436;6.774;2023-09-12T01:08:45;19.40;;;15.38;;
20417;SDS011;10368;51.436;6.774;2023-09-12T01:11:13;26.08;;;18.02;;
20417;SDS011;10368;51.436;6.774;2023-09-12T01:13:40;22.33;;;16.98;;
20417;SDS011;10368;51.436;6.774;2023-09-12T01:16:07;17.33;;;15.45;;
20417;SDS011;10368;51.436;6.774;2023-09-12T01:18:34;27.88;;;18.08;;
20417;SDS011;10368;51.436;6.774;2023-09-12T01:27:25;18.73;;;15.00;;
20417;SDS011;10368;51.436;6.774;2023-09-12T01:29:57;17.25;;;15.27;;
20417;SDS011;10368;51.436;6.774;2023-09-12T01:32:27;16.35;;;14.65;;
20417;SDS011;10368;51.436;6.774;2023-09-12T01:34:55;17.95;;;15.05;;
20417;SDS011;10368;51.436;6.774;2023-09-12T01:37:22;16.98;;;13.88;;
20417;SDS011;10368;51.436;6.774;2023-09-12T01:39:49;16.58;;;14.90;;
20417;SDS011;10368;51.436;6.774;2023-09-12T01:42:17;16.15;;;14.45;;
20417;SDS011;10368;51.436;6.774;2023-09-12T01:44:46;15.20;;;13.50;;
20417;SDS011;10368;51.436;6.774;2023-09-12T01:47:20;17.13;;;13.55;;
20417;SDS011;10368;51.436;6.774;2023-09-12T01:49:49;16.88;;;12.82;;
20417;SDS011;10368;51.436;6.774;2023-09-12T01:52:20;15.73;;;14.10;;
20417;SDS011;10368;51.436;6.774;2023-09-12T01:54:48;14.60;;;13.05;;
20417;SDS011;10368;51.436;6.774;2023-09-12T01:57:16;15.48;;;13.88;;
20417;SDS011;10368;51.436;6.774;2023-09-12T01:59:47;14.30;;;12.65;;
20417;SDS011;10368;51.436;6.774;2023-09-12T02:02:18;16.52;;;14.48;;
20417;SDS011;10368;51.436;6.774;2023-09-12T02:04:54;17.63;;;15.60;;
20417;SDS011;10368;51.436;6.774;2023-09-12T02:07:40;19.65;;;15.85;;
20417;SDS011;10368;51.436;6.774;2023-09-12T02:10:08;20.33;;;16.13;;
20417;SDS011;10368;51.436;6.774;2023-09-12T02:12:36;21.95;;;16.02;;
20417;SDS011;10368;51.436;6.774;2023-09-12T02:15:03;18.23;;;16.23;;
20417;SDS011;10368;51.436;6.774;2023-09-12T02:17:31;17.88;;;14.13;;
20417;SDS011;10368;51.436;6.774;2023-09-12T02:19:58;19.35;;;15.80;;
20417;SDS011;10368;51.436;6.774;2023-09-12T02:22:25;19.25;;;14.52;;
20417;SDS011;10368;51.436;6.774;2023-09-12T02:24:52;15.45;;;13.93;;
20417;SDS011;10368;51.436;6.774;2023-09-12T02:27:19;18.95;;;15.15;;
20417;SDS011;10368;51.436;6.774;2023-09-12T02:29:45;18.40;;;15.50;;
20417;SDS011;10368;51.436;6.774;2023-09-12T02:32:13;20.27;;;18.08;;
20417;SDS011;10368;51.436;6.774;2023-09-12T02:34:40;20.83;;;18.63;;
20417;SDS011;10368;51.436;6.774;2023-09-12T02:37:07;20.65;;;15.63;;
20417;SDS011;10368;51.436;6.774;2023-09-12T02:39:34;20.27;;;16.38;;
20417;SDS011;10368;51.436;6.774;2023-09-12T02:42:00;17.13;;;14.38;;
20417;SDS011;10368;51.436;6.774;2023-09-12T02:44:28;19.17;;;15.70;;
20417;SDS011;10368;51.436;6.774;2023-09-12T02:46:55;17.60;;;15.57;;
20417;SDS011;10368;51.436;6.774;2023-09-12T02:49:22;20.42;;;18.38;;
20417;SDS011;10368;51.436;6.774;2023-09-12T02:51:49;16.92;;;15.25;;
20417;SDS011;10368;51.436;6.774;2023-09-12T02:54:16;18.67;;;16.67;;
20417;SDS011;10368;51.436;6.774;2023-09-12T02:56:43;16.40;;;14.88;;
20417;SDS011;10368;51.436;6.774;2023-09-12T02:59:10;21.35;;;17.42;;
20417;SDS011;10368;51.436;6.774;2023-09-12T03:01:37;18.08;;;16.20;;
20417;SDS011;10368;51.436;6.774;2023-09-12T03:04:03;23.98;;;19.05;;
20417;SDS011;10368;51.436;6.774;2023-09-12T03:06:30;18.60;;;16.75;;
20417;SDS011;10368;51.436;6.774;2023-09-12T03:08:58;25.83;;;17.60;;
20417;SDS011;10368;51.436;6.774;2023-09-12T03:11:28;23.85;;;19.92;;
20417;SDS011;10368;51.436;6.774;2023-09-12T03:13:55;19.58;;;17.52;;
20417;SDS011;10368;51.436;6.774;2023-09-12T03:16:22;22.35;;;17.95;;
20417;SDS011;10368;51.436;6.774;2023-09-12T03:18:50;21.85;;;18.55;;
20417;SDS011;10368;51.436;6.774;2023-09-12T03:21:17;26.90;;;19.23;;
20417;SDS011;10368;51.436;6.774;2023-09-12T03:23:44;22.30;;;19.92;;
20417;SDS011;10368;51.436;6.774;2023-09-12T03:26:11;21.92;;;18.80;;
20417;SDS011;10368;51.436;6.774;2023-09-12T03:28:38;25.85;;;19.33;;
20417;SDS011;10368;51.436;6.774;2023-09-12T03:31:11;20.55;;;18.33;;
20417;SDS011;10368;51.436;6.774;2023-09-12T03:33:40;23.00;;;18.45;;
20417;SDS011;10368;51.436;6.774;2023-09-12T03:36:09;23.13;;;20.35;;
20417;SDS011;10368;51.436;6.774;2023-09-12T03:38:36;21.73;;;19.55;;
20417;SDS011;10368;51.436;6.774;2023-09-12T03:41:03;26.92;;;22.13;;
20417;SDS011;10368;51.436;6.774;2023-09-12T03:43:30;25.10;;;21.15;;
20417;SDS011;10368;51.436;6.774;2023-09-12T03:45:57;27.38;;;21.85;;
20417;SDS011;10368;51.436;6.774;2023-09-12T03:48:24;26.67;;;21.00;;
20417;SDS011;10368;51.436;6.774;2023-09-12T03:50:51;26.95;;;23.50;;
20417;SDS011;10368;51.436;6.774;2023-09-12T03:53:18;32.83;;;21.90;;
20417;SDS011;10368;51.436;6.774;2023-09-12T03:55:45;29.55;;;23.45;;
20417;SDS011;10368;51.436;6.774;2023-09-12T03:58:11;30.65;;;23.00;;
20417;SDS011;10368;51.436;6.774;2023-09-12T04:00:38;28.25;;;25.33;;
20417;SDS011;10368;51.436;6.774;2023-09-12T04:03:05;31.38;;;24.73;;
20417;SDS011;10368;51.436;6.774;2023-09-12T04:05:33;38.65;;;27.65;;
20417;SDS011;10368;51.436;6.774;2023-09-12T04:07:59;34.38;;;24.90;;
20417;SDS011;10368;51.436;6.774;2023-09-12T04:10:26;32.08;;;23.98;;
20417;SDS011;10368;51.436;6.774;2023-09-12T04:12:53;28.10;;;23.50;;
20417;SDS011;10368;51.436;6.774;2023-09-12T04:15:20;33.03;;;26.60;;
20417;SDS011;10368;51.436;6.774;2023-09-12T04:17:47;33.75;;;26.52;;
20417;SDS011;10368;51.436;6.774;2023-09-12T04:20:14;36.08;;;27.92;;
20417;SDS011;10368;51.436;6.774;2023-09-12T04:22:41;33.28;;;27.67;;
20417;SDS011;10368;51.436;6.774;2023-09-12T04:25:09;35.30;;;26.27;;
20417;SDS011;10368;51.436;6.774;2023-09-12T04:27:36;37.15;;;26.15;;
20417;SDS011;10368;51.436;6.774;2023-09-12T04:30:04;31.80;;;25.35;;
20417;SDS011;10368;51.436;6.774;2023-09-12T04:32:31;38.08;;;27.63;;
20417;SDS011;10368;51.436;6.774;2023-09-12T04:34:59;31.00;;;24.83;;
20417;SDS011;10368;51.436;6.774;2023-09-12T04:37:26;31.60;;;24.30;;
20417;SDS011;10368;51.436;6.774;2023-09-12T04:39:53;32.97;;;24.88;;
20417;SDS011;10368;51.436;6.774;2023-09-12T04:42:19;34.38;;;24.55;;
20417;SDS011;10368;51.436;6.774;2023-09-12T04:44:48;28.20;;;22.52;;
20417;SDS011;10368;51.436;6.774;2023-09-12T04:47:15;28.52;;;22.98;;
20417;SDS011;10368;51.436;6.774;2023-09-12T04:49:43;28.17;;;23.27;;
20417;SDS011;10368;51.436;6.774;2023-09-12T04:52:10;26.13;;;23.35;;
20417;SDS011;10368;51.436;6.774;2023-09-12T04:54:37;26.83;;;23.92;;
20417;SDS011;10368;51.436;6.774;2023-09-12T04:57:04;25.52;;;22.73;;
20417;SDS011;10368;51.436;6.774;2023-09-12T04:59:31;28.52;;;23.15;;
20417;SDS011;10368;51.436;6.774;2023-09-12T05:01:58;25.50;;;21.80;;
20417;SDS011;10368;51.436;6.774;2023-09-12T05:04:24;28.65;;;23.40;;
20417;SDS011;10368;51.436;6.774;2023-09-12T05:06:51;27.42;;;23.58;;
20417;SDS011;10368;51.436;6.774;2023-09-12T05:09:19;26.52;;;21.98;;
20417;SDS011;10368;51.436;6.774;2023-09-12T05:11:46;27.25;;;23.45;;
20417;SDS011;10368;51.436;6.774;2023-09-12T05:14:13;27.27;;;22.83;;
20417;SDS011;10368;51.436;6.774;2023-09-12T05:16:40;24.02;;;21.38;;
20417;SDS011;10368;51.436;6.774;2023-09-12T05:19:07;30.25;;;22.40;;
20417;SDS011;10368;51.436;6.774;2023-09-12T05:21:34;28.42;;;22.13;;
20417;SDS011;10368;51.436;6.774;2023-09-12T05:24:01;24.55;;;21.48;;
20417;SDS011;10368;51.436;6.774;2023-09-12T05:26:28;27.65;;;24.65;;
20417;SDS011;10368;51.436;6.774;2023-09-12T05:28:55;31.63;;;23.30;;
20417;SDS011;10368;51.436;6.774;2023-09-12T05:31:21;32.45;;;23.48;;
20417;SDS011;10368;51.436;6.774;2023-09-12T05:33:48;26.25;;;23.63;;
20417;SDS011;10368;51.436;6.774;2023-09-12T05:36:15;24.58;;;21.05;;
20417;SDS011;10368;51.436;6.774;2023-09-12T05:38:42;24.05;;;21.50;;
20417;SDS011;10368;51.436;6.774;2023-09-12T05:41:10;33.60;;;23.15;;
20417;SDS011;10368;51.436;6.774;2023-09-12T05:43:37;30.98;;;23.58;;
20417;SDS011;10368;51.436;6.774;2023-09-12T05:46:04;30.95;;;24.65;;
20417;SDS011;10368;51.436;6.774;2023-09-12T05:48:31;29.30;;;25.52;;
20417;SDS011;10368;51.436;6.774;2023-09-12T05:50:58;39.28;;;27.73;;
20417;SDS011;10368;51.436;6.774;2023-09-12T05:53:25;35.25;;;27.30;;
20417;SDS011;10368;51.436;6.774;2023-09-12T05:55:51;40.72;;;29.45;;
20417;SDS011;10368;51.436;6.774;2023-09-12T05:58:18;38.60;;;27.77;;
20417;SDS011;10368;51.436;6.774;2023-09-12T06:00:45;34.35;;;26.23;;
20417;SDS011;10368;51.436;6.774;2023-09-12T06:03:14;40.08;;;28.58;;
20417;SDS011;10368;51.436;6.774;2023-09-12T06:05:42;37.15;;;28.10;;
20417;SDS011;10368;51.436;6.774;2023-09-12T06:08:09;46.90;;;28.90;;
20417;SDS011;10368;51.436;6.774;2023-09-12T06:10:37;39.45;;;27.38;;
20417;SDS011;10368;51.436;6.774;2023-09-12T06:13:04;33.35;;;23.98;;
20417;SDS011;10368;51.436;6.774;2023-09-12T06:15:30;49.38;;;26.30;;
20417;SDS011;10368;51.436;6.774;2023-09-12T06:17:58;61.97;;;30.90;;
20417;SDS011;10368;51.436;6.774;2023-09-12T06:20:25;80.47;;;32.47;;
20417;SDS011;10368;51.436;6.774;2023-09-12T06:22:52;43.67;;;21.67;;
20417;SDS011;10368;51.436;6.774;2023-09-12T06:25:19;37.30;;;18.77;;
20417;SDS011;10368;51.436;6.774;2023-09-12T06:27:46;25.23;;;14.90;;
20417;SDS011;10368;51.436;6.774;2023-09-12T06:30:13;27.13;;;14.15;;
20417;SDS011;10368;51.436;6.774;2023-09-12T06:32:40;34.50;;;17.70;;
20417;SDS011;10368;51.436;6.774;2023-09-12T06:35:07;32.45;;;18.10;;
20417;SDS011;10368;51.436;6.774;2023-09-12T06:37:39;25.98;;;15.80;;
20417;SDS011;10368;51.436;6.774;2023-09-12T06:40:06;29.50;;;16.13;;
20417;SDS011;10368;51.436;6.774;2023-09-12T06:42:34;18.98;;;13.20;;
20417;SDS011;10368;51.436;6.774;2023-09-12T06:45:01;16.55;;;13.15;;
20417;SDS011;10368;51.436;6.774;2023-09-12T06:47:27;27.73;;;14.85;;
20417;SDS011;10368;51.436;6.774;2023-09-12T06:49:54;12.95;;;10.95;;
20417;SDS011;10368;51.436;6.774;2023-09-12T06:52:22;14.80;;;9.65;;
20417;SDS011;10368;51.436;6.774;2023-09-12T06:54:49;12.82;;;8.77;;
20417;SDS011;10368;51.436;6.774;2023-09-12T06:57:16;8.48;;;6.75;;
20417;SDS011;10368;51.436;6.774;2023-09-12T06:59:42;11.52;;;7.93;;
20417;SDS011;10368;51.436;6.774;2023-09-12T07:02:09;11.80;;;7.47;;
20417;SDS011;10368;51.436;6.774;2023-09-12T07:04:39;11.02;;;8.25;;
20417;SDS011;10368;51.436;6.774;2023-09-12T07:07:05;9.45;;;8.15;;
20417;SDS011;10368;51.436;6.774;2023-09-12T07:09:32;11.10;;;8.15;;
20417;SDS011;10368;51.436;6.774;2023-09-12T07:12:00;13.40;;;8.65;;
20417;SDS011;10368;51.436;6.774;2023-09-12T07:14:27;14.40;;;8.57;;
20417;SDS011;10368;51.436;6.774;2023-09-12T07:16:53;11.48;;;7.78;;
20417;SDS011;10368;51.436;6.774;2023-09-12T07:19:20;8.95;;;6.95;;
20417;SDS011;10368;51.436;6.774;2023-09-12T07:21:47;11.40;;;8.05;;
20417;SDS011;10368;51.436;6.774;2023-09-12T07:24:14;12.13;;;8.02;;
20417;SDS011;10368;51.436;6.774;2023-09-12T07:26:41;10.70;;;7.13;;
20417;SDS011;10368;51.436;6.774;2023-09-12T07:29:08;10.80;;;7.68;;
20417;SDS011;10368;51.436;6.774;2023-09-12T07:36:44;9.05;;;6.45;;
20417;SDS011;10368;51.436;6.774;2023-09-12T07:39:11;13.23;;;7.00;;
20417;SDS011;10368;51.436;6.774;2023-09-12T07:41:39;9.32;;;6.43;;
20417;SDS011;10368;51.436;6.774;2023-09-12T07:44:06;11.00;;;6.80;;
20417;SDS011;10368;51.436;6.774;2023-09-12T07:46:38;10.15;;;6.75;;
20417;SDS011;10368;51.436;6.774;2023-09-12T07:49:05;8.80;;;7.53;;
20417;SDS011;10368;51.436;6.774;2023-09-12T07:51:32;10.65;;;7.05;;
20417;SDS011;10368;51.436;6.774;2023-09-12T07:53:59;14.45;;;6.95;;
20417;SDS011;10368;51.436;6.774;2023-09-12T07:56:26;10.63;;;7.95;;
20417;SDS011;10368;51.436;6.774;2023-09-12T07:58:53;18.50;;;9.30;;
20417;SDS011;10368;51.436;6.774;2023-09-12T08:01:21;11.48;;;9.55;;
20417;SDS011;10368;51.436;6.774;2023-09-12T08:03:48;12.30;;;8.70;;
20417;SDS011;10368;51.436;6.774;2023-09-12T08:06:16;13.55;;;10.60;;
20417;SDS011;10368;51.436;6.774;2023-09-12T08:08:43;15.65;;;10.68;;
20417;SDS011;10368;51.436;6.774;2023-09-12T08:11:11;13.10;;;10.23;;
20417;SDS011;10368;51.436;6.774;2023-09-12T08:13:38;12.07;;;10.73;;
20417;SDS011;10368;51.436;6.774;2023-09-12T08:16:06;14.13;;;11.88;;
20417;SDS011;10368;51.436;6.774;2023-09-12T08:18:33;14.93;;;12.00;;
20417;SDS011;10368;51.436;6.774;2023-09-12T08:21:00;17.33;;;13.57;;
20417;SDS011;10368;51.436;6.774;2023-09-12T08:23:27;15.60;;;13.63;;
20417;SDS011;10368;51.436;6.774;2023-09-12T08:25:54;15.90;;;13.13;;
20417;SDS011;10368;51.436;6.774;2023-09-12T08:28:20;14.65;;;13.15;;
20417;SDS011;10368;51.436;6.774;2023-09-12T08:30:47;16.92;;;12.73;;
20417;SDS011;10368;51.436;6.774;2023-09-12T08:33:15;15.57;;;13.02;;
20417;SDS011;10368;51.436;6.774;2023-09-12T08:35:42;16.02;;;12.60;;
20417;SDS011;10368;51.436;6.774;2023-09-12T08:38:09;15.43;;;13.82;;
20417;SDS011;10368;51.436;6.774;2023-09-12T08:40:38;15.27;;;13.68;;
20417;SDS011;10368;51.436;6.774;2023-09-12T08:43:05;18.42;;;15.30;;
20417;SDS011;10368;51.436;6.774;2023-09-12T08:45:34;19.88;;;15.02;;
20417;SDS011;10368;51.436;6.774;2023-09-12T08:48:02;19.08;;;16.58;;
20417;SDS011;10368;51.436;6.774;2023-09-12T08:50:31;22.42;;;19.60;;
20417;SDS011;10368;51.436;6.774;2023-09-12T08:53:01;26.90;;;21.67;;
20417;SDS011;10368;51.436;6.774;2023-09-12T08:55:34;38.33;;;25.02;;
20417;SDS011;10368;51.436;6.774;2023-09-12T08:58:02;31.00;;;26.50;;
20417;SDS011;10368;51.436;6.774;2023-09-12T09:00:30;41.45;;;30.38;;
20417;SDS011;10368;51.436;6.774;2023-09-12T09:02:58;44.88;;;31.25;;
20417;SDS011;10368;51.436;6.774;2023-09-12T09:05:25;34.05;;;26.55;;
20417;SDS011;10368;51.436;6.774;2023-09-12T09:07:54;32.97;;;26.40;;
20417;SDS011;10368;51.436;6.774;2023-09-12T09:10:21;35.67;;;26.02;;
20417;SDS011;10368;51.436;6.774;2023-09-12T09:13:07;26.67;;;22.15;;
20417;SDS011;10368;51.436;6.774;2023-09-12T09:15:36;31.88;;;22.75;;
20417;SDS011;10368;51.436;6.774;2023-09-12T09:18:09;23.33;;;20.55;;
20417;SDS011;10368;51.436;6.774;2023-09-12T09:20:41;24.40;;;19.98;;
20417;SDS011;10368;51.436;6.774;2023-09-12T09:23:16;22.98;;;18.25;;
20417;SDS011;10368;51.436;6.774;2023-09-12T09:25:43;22.17;;;17.00;;
20417;SDS011;10368;51.436;6.774;2023-09-12T09:28:21;20.13;;;16.23;;
20417;SDS011;10368;51.436;6.774;2023-09-12T09:30:49;29.63;;;17.35;;
20417;SDS011;10368;51.436;6.774;2023-09-12T09:33:21;20.05;;;17.73;;
20417;SDS011;10368;51.436;6.774;2023-09-12T09:35:48;25.23;;;20.38;;
20417;SDS011;10368;51.436;6.774;2023-09-12T09:38:19;38.25;;;26.25;;
20417;SDS011;10368;51.436;6.774;2023-09-12T09:40:46;48.60;;;32.60;;
20417;SDS011;10368;51.436;6.774;2023-09-12T09:43:19;47.03;;;31.67;;
20417;SDS011;10368;51.436;6.774;2023-09-12T09:45:46;50.75;;;32.90;;
20417;SDS011;10368;51.436;6.774;2023-09-12T09:48:18;42.58;;;31.90;;
20417;SDS011;10368;51.436;6.774;2023-09-12T09:50:49;40.22;;;30.70;;
20417;SDS011;10368;51.436;6.774;2023-09-12T09:53:16;49.60;;;33.03;;
20417;SDS011;10368;51.436;6.774;2023-09-12T09:55:43;43.63;;;31.60;;
20417;SDS011;10368;51.436;6.774;2023-09-12T09:58:14;48.25;;;31.55;;
20417;SDS011;10368;51.436;6.774;2023-09-12T10:00:43;40.67;;;29.58;;
20417;SDS011;10368;51.436;6.774;2023-09-12T10:03:11;36.92;;;27.52;;
20417;SDS011;10368;51.436;6.774;2023-09-12T10:05:39;33.33;;;25.77;;
20417;SDS011;10368;51.436;6.774;2023-09-12T10:08:08;40.30;;;26.50;;
20417;SDS011;10368;51.436;6.774;2023-09-12T10:10:38;25.52;;;20.55;;
20417;SDS011;10368;51.436;6.774;2023-09-12T10:13:07;27.65;;;22.45;;
20417;SDS011;10368;51.436;6.774;2023-09-12T10:15:35;31.45;;;21.20;;
20417;SDS011;10368;51.436;6.774;2023-09-12T10:18:06;19.77;;;16.80;;
20417;SDS011;10368;51.436;6.774;2023-09-12T10:21:00;23.77;;;16.85;;
20417;SDS011;10368;51.436;6.774;2023-09-12T10:23:34;18.63;;;14.65;;
20417;SDS011;10368;51.436;6.774;2023-09-12T10:26:13;18.60;;;16.73;;
20417;SDS011;10368;51.436;6.774;2023-09-12T10:28:41;16.40;;;14.70;;
20417;SDS011;10368;51.436;6.774;2023-09-12T10:31:11;16.38;;;14.70;;
20417;SDS011;10368;51.436;6.774;2023-09-12T10:33:39;15.98;;;14.38;;
20417;SDS011;10368;51.436;6.774;2023-09-12T10:36:08;15.32;;;13.73;;
20417;SDS011;10368;51.436;6.774;2023-09-12T10:38:45;13.90;;;12.52;;
20417;SDS011;10368;51.436;6.774;2023-09-12T10:41:15;13.90;;;11.88;;
20417;SDS011;10368;51.436;6.774;2023-09-12T10:43:43;12.52;;;11.35;;
20417;SDS011;10368;51.436;6.774;2023-09-12T10:46:16;12.02;;;10.85;;
20417;SDS011;10368;51.436;6.774;2023-09-12T10:48:43;13.93;;;10.27;;
20417;SDS011;10368;51.436;6.774;2023-09-12T10:51:11;12.05;;;9.60;;
20417;SDS011;10368;51.436;6.774;2023-09-12T10:53:45;11.95;;;9.73;;
20417;SDS011;10368;51.436;6.774;2023-09-12T10:56:17;8.05;;;7.25;;
20417;SDS011;10368;51.436;6.774;2023-09-12T11:01:31;9.18;;;8.20;;
20417;SDS011;10368;51.436;6.774;2023-09-12T11:06:45;10.02;;;8.55;;
20417;SDS011;10368;51.436;6.774;2023-09-12T11:12:09;7.50;;;6.80;;
20417;SDS011;10368;51.436;6.774;2023-09-12T11:23:23;7.38;;;6.70;;
20417;SDS011;10368;51.436;6.774;2023-09-12T11:26:22;7.97;;;7.28;;
20417;SDS011;10368;51.436;6.774;2023-09-12T11:29:39;6.32;;;5.65;;
20417;SDS011;10368;51.436;6.774;2023-09-12T11:32:53;8.50;;;7.80;;
20417;SDS011;10368;51.436;6.774;2023-09-12T11:35:58;11.18;;;8.73;;
20417;SDS011;10368;51.436;6.774;2023-09-12T11:39:01;13.45;;;9.60;;
20417;SDS011;10368;51.436;6.774;2023-09-12T11:42:27;8.85;;;8.05;;
20417;SDS011;10368;51.436;6.774;2023-09-12T11:45:29;13.40;;;9.63;;
20417;SDS011;10368;51.436;6.774;2023-09-12T11:48:20;9.02;;;8.23;;
20417;SDS011;10368;51.436;6.774;2023-09-12T11:51:34;10.10;;;9.10;;
20417;SDS011;10368;51.436;6.774;2023-09-12T11:54:31;10.95;;;9.38;;
20417;SDS011;10368;51.436;6.774;2023-09-12T11:57:21;9.95;;;9.05;;
20417;SDS011;10368;51.436;6.774;2023-09-12T12:00:15;11.60;;;10.60;;
20417;SDS011;10368;51.436;6.774;2023-09-12T12:02:53;8.25;;;7.55;;
20417;SDS011;10368;51.436;6.774;2023-09-12T12:05:54;9.77;;;7.68;;
20417;SDS011;10368;51.436;6.774;2023-09-12T12:08:45;6.45;;;5.75;;
20417;SDS011;10368;51.436;6.774;2023-09-12T12:11:28;7.38;;;6.68;;
20417;SDS011;10368;51.436;6.774;2023-09-12T12:14:39;6.57;;;6.07;;
20417;SDS011;10368;51.436;6.774;2023-09-12T12:17:55;7.63;;;6.85;;
20417;SDS011;10368;51.436;6.774;2023-09-12T12:21:13;8.35;;;6.55;;
20417;SDS011;10368;51.436;6.774;2023-09-12T12:24:14;5.63;;;5.20;;
20417;SDS011;10368;51.436;6.774;2023-09-12T12:27:19;5.50;;;5.00;;
20417;SDS011;10368;51.436;6.774;2023-09-12T12:30:12;7.03;;;6.40;;
20417;SDS011;10368;51.436;6.774;2023-09-12T12:33:16;7.68;;;7.18;;
20417;SDS011;10368;51.436;6.774;2023-09-12T12:39:25;9.55;;;8.70;;
20417;SDS011;10368;51.436;6.774;2023-09-12T12:42:45;11.32;;;9.18;;
20417;SDS011;10368;51.436;6.774;2023-09-12T12:45:53;11.02;;;10.13;;
20417;SDS011;10368;51.436;6.774;2023-09-12T12:51:46;10.50;;;9.45;;
20417;SDS011;10368;51.436;6.774;2023-09-12T12:54:21;10.90;;;10.00;;
20417;SDS011;10368;51.436;6.774;2023-09-12T12:57:00;11.05;;;10.10;;
20417;SDS011;10368;51.436;6.774;2023-09-12T12:59:35;9.52;;;8.73;;
20417;SDS011;10368;51.436;6.774;2023-09-12T13:02:17;10.27;;;9.20;;
20417;SDS011;10368;51.436;6.774;2023-09-12T13:05:00;10.30;;;9.23;;
20417;SDS011;10368;51.436;6.774;2023-09-12T13:08:00;9.98;;;9.27;;
20417;SDS011;10368;51.436;6.774;2023-09-12T13:10:46;8.57;;;7.95;;
20417;SDS011;10368;51.436;6.774;2023-09-12T13:17:34;11.07;;;10.10;;
20417;SDS011;10368;51.436;6.774;2023-09-12T13:20:14;10.45;;;9.35;;
20417;SDS011;10368;51.436;6.774;2023-09-12T13:22:53;9.95;;;9.25;;
20417;SDS011;10368;51.436;6.774;2023-09-12T13:28:47;9.32;;;8.57;;
20417;SDS011;10368;51.436;6.774;2023-09-12T13:31:59;9.18;;;8.57;;
20417;SDS011;10368;51.436;6.774;2023-09-12T13:35:16;8.77;;;8.07;;
20417;SDS011;10368;51.436;6.774;2023-09-12T13:38:46;9.07;;;8.27;;
20417;SDS011;10368;51.436;6.774;2023-09-12T13:42:09;8.70;;;7.90;;
20417;SDS011;10368;51.436;6.774;2023-09-12T13:45:49;7.10;;;6.47;;
20417;SDS011;10368;51.436;6.774;2023-09-12T13:48:21;8.88;;;7.38;;
20417;SDS011;10368;51.436;6.774;2023-09-12T13:51:09;7.30;;;6.70;;
20417;SDS011;10368;51.436;6.774;2023-09-12T13:54:26;12.77;;;7.18;;
20417;SDS011;10368;51.436;6.774;2023-09-12T13:57:33;9.10;;;8.40;;
20417;SDS011;10368;51.436;6.774;2023-09-12T14:00:37;9.50;;;8.70;;
20417;SDS011;10368;51.436;6.774;2023-09-12T14:03:23;10.20;;;9.23;;
20417;SDS011;10368;51.436;6.774;2023-09-12T14:06:09;8.05;;;7.28;;
20417;SDS011;10368;51.436;6.774;2023-09-12T14:09:33;9.65;;;8.88;;
20417;SDS011;10368;51.436;6.774;2023-09-12T14:13:05;11.68;;;10.75;;
20417;SDS011;10368;51.436;6.774;2023-09-12T14:19:55;10.73;;;9.75;;
20417;SDS011;10368;51.436;6.774;2023-09-12T14:22:50;12.63;;;11.48;;
20417;SDS011;10368;51.436;6.774;2023-09-12T14:25:59;14.07;;;12.77;;
20417;SDS011;10368;51.436;6.774;2023-09-12T14:29:15;11.55;;;10.65;;
20417;SDS011;10368;51.436;6.774;2023-09-12T14:32:04;11.13;;;10.18;;
20417;SDS011;10368;51.436;6.774;2023-09-12T14:34:42;10.45;;;9.65;;
20417;SDS011;10368;51.436;6.774;2023-09-12T14:37:36;9.60;;;8.68;;
20417;SDS011;10368;51.436;6.774;2023-09-12T14:40:19;9.75;;;8.85;;
20417;SDS011;10368;51.436;6.774;2023-09-12T14:43:52;9.18;;;8.20;;
20417;SDS011;10368;51.436;6.774;2023-09-12T14:49:47;7.80;;;7.10;;
20417;SDS011;10368;51.436;6.774;2023-09-12T14:52:42;7.95;;;7.18;;
20417;SDS011;10368;51.436;6.774;2023-09-12T14:55:38;6.13;;;5.53;;
20417;SDS011;10368;51.436;6.774;2023-09-12T14:59:23;7.68;;;6.90;;
20417;SDS011;10368;51.436;6.774;2023-09-12T15:02:12;11.05;;;9.98;;
20417;SDS011;10368;51.436;6.774;2023-09-12T15:05:46;8.60;;;7.90;;
20417;SDS011;10368;51.436;6.774;2023-09-12T15:09:22;7.78;;;6.88;;
20417;SDS011;10368;51.436;6.774;2023-09-12T15:12:44;6.88;;;6.10;;
20417;SDS011;10368;51.436;6.774;2023-09-12T15:15:41;7.47;;;6.78;;
20417;SDS011;10368;51.436;6.774;2023-09-12T15:18:18;10.25;;;9.25;;
20417;SDS011;10368;51.436;6.774;2023-09-12T15:21:38;11.75;;;7.70;;
20417;SDS011;10368;51.436;6.774;2023-09-12T15:24:16;7.45;;;6.75;;
20417;SDS011;10368;51.436;6.774;2023-09-12T15:27:16;7.72;;;6.90;;
20417;SDS011;10368;51.436;6.774;2023-09-12T15:30:07;15.30;;;13.18;;
20417;SDS011;10368;51.436;6.774;2023-09-12T15:32:49;7.78;;;7.05;;
20417;SDS011;10368;51.436;6.774;2023-09-12T15:35:26;7.97;;;6.20;;
20417;SDS011;10368;51.436;6.774;2023-09-12T15:38:06;9.57;;;8.40;;
20417;SDS011;10368;51.436;6.774;2023-09-12T15:40:48;7.50;;;6.32;;
20417;SDS011;10368;51.436;6.774;2023-09-12T15:43:39;7.40;;;6.30;;
20417;SDS011;10368;51.436;6.774;2023-09-12T15:46:43;8.38;;;6.45;;
20417;SDS011;10368;51.436;6.774;2023-09-12T15:49:55;7.28;;;6.30;;
20417;SDS011;10368;51.436;6.774;2023-09-12T15:52:36;8.90;;;8.15;;
20417;SDS011;10368;51.436;6.774;2023-09-12T15:55:25;7.85;;;6.30;;
20417;SDS011;10368;51.436;6.774;2023-09-12T15:58:11;7.65;;;6.95;;
20417;SDS011;10368;51.436;6.774;2023-09-12T16:00:41;7.38;;;6.40;;
20417;SDS011;10368;51.436;6.774;2023-09-12T16:03:49;6.75;;;6.15;;
20417;SDS011;10368;51.436;6.774;2023-09-12T16:07:14;6.93;;;5.43;;
20417;SDS011;10368;51.436;6.774;2023-09-12T16:10:04;6.35;;;5.72;;